createdAt,value
2022-11-01T00:01:05.750Z,24.20
2022-11-01T00:02:29.231Z,23.73
2022-11-01T00:03:51.667Z,24.58
2022-11-01T00:05:15.058Z,23.92
2022-11-01T00:06:37.433Z,24.00
2022-11-01T00:08:02.381Z,23.65
2022-11-01T00:09:26.032Z,25.13
2022-11-01T00:10:48.456Z,22.75
2022-11-01T00:12:11.934Z,22.13
2022-11-01T00:13:34.474Z,18.75
2022-11-01T00:14:57.798Z,22.38
2022-11-01T00:16:21.315Z,17.85
2022-11-01T00:17:44.666Z,21.42
2022-11-01T00:19:08.379Z,20.98
2022-11-01T00:20:30.753Z,20.80
2022-11-01T00:21:54.085Z,24.20
2022-11-01T00:23:17.777Z,24.38
2022-11-01T00:24:41.165Z,23.88
2022-11-01T00:26:05.370Z,23.63
2022-11-01T00:27:28.714Z,23.63
2022-11-01T00:28:52.642Z,23.95
2022-11-01T00:30:15.119Z,18.85
2022-11-01T00:31:38.467Z,21.95
2022-11-01T00:33:00.814Z,21.10
2022-11-01T00:34:24.273Z,20.45
2022-11-01T00:35:47.086Z,23.30
2022-11-01T00:37:10.438Z,21.70
2022-11-01T00:38:35.219Z,23.00
2022-11-01T00:39:57.596Z,22.20
2022-11-01T00:41:21.740Z,22.40
2022-11-01T00:42:44.120Z,22.95
2022-11-01T00:44:07.535Z,21.30
2022-11-01T00:45:29.905Z,22.27
2022-11-01T00:46:53.290Z,23.25
2022-11-01T00:48:15.720Z,24.80
2022-11-01T00:49:39.085Z,23.50
2022-11-01T00:51:01.433Z,24.67
2022-11-01T00:52:24.919Z,24.02
2022-11-01T00:53:49.659Z,23.13
2022-11-01T00:55:12.100Z,23.45
2022-11-01T00:56:35.455Z,23.13
2022-11-01T00:57:57.879Z,23.27
2022-11-01T00:59:21.612Z,21.02
2022-11-01T01:00:44.037Z,23.95
2022-11-01T01:02:07.579Z,22.48
2022-11-01T01:03:30.127Z,22.65
2022-11-01T01:04:54.723Z,21.45
2022-11-01T01:06:20.901Z,21.95
2022-11-01T01:07:43.311Z,19.83
2022-11-01T01:09:08.151Z,20.73
2022-11-01T01:10:30.582Z,22.00
2022-11-01T01:11:54.476Z,21.17
2022-11-01T01:13:18.358Z,20.00
2022-11-01T01:14:40.745Z,21.80
2022-11-01T01:16:09.552Z,20.45
2022-11-01T01:17:33.801Z,19.88
2022-11-01T01:18:57.403Z,21.13
2022-11-01T01:20:20.294Z,19.83
2022-11-01T01:21:43.651Z,20.20
2022-11-01T01:23:07.005Z,18.25
2022-11-01T01:24:31.350Z,18.88
2022-11-01T01:25:54.706Z,20.58
2022-11-01T01:27:18.807Z,20.13
2022-11-01T01:28:44.761Z,22.08
2022-11-01T01:30:08.073Z,21.10
2022-11-01T01:31:31.647Z,21.52
2022-11-01T01:32:54.986Z,19.52
2022-11-01T01:34:17.532Z,20.48
2022-11-01T01:35:41.247Z,19.60
2022-11-01T01:37:06.837Z,20.73
2022-11-01T01:38:29.909Z,20.33
2022-11-01T01:39:55.057Z,20.40
2022-11-01T01:41:35.758Z,21.50
2022-11-01T01:42:59.137Z,20.05
2022-11-01T01:45:03.834Z,20.02
2022-11-01T01:46:27.183Z,20.58
2022-11-01T01:47:52.443Z,19.63
2022-11-01T01:49:15.847Z,19.98
2022-11-01T01:50:42.912Z,20.45
2022-11-01T01:52:05.520Z,19.92
2022-11-01T01:53:31.091Z,18.80
2022-11-01T01:54:55.111Z,19.95
2022-11-01T01:56:21.430Z,19.65
2022-11-01T01:57:44.027Z,20.35
2022-11-01T01:59:08.919Z,20.02
2022-11-01T02:00:31.468Z,21.17
2022-11-01T02:01:55.077Z,20.60
2022-11-01T02:03:18.258Z,20.17
2022-11-01T02:04:43.595Z,19.42
2022-11-01T02:06:10.386Z,20.35
2022-11-01T02:07:32.873Z,20.50
2022-11-01T02:08:58.033Z,19.77
2022-11-01T02:10:22.516Z,17.95
2022-11-01T02:11:46.014Z,19.98
2022-11-01T02:13:13.179Z,19.35
2022-11-01T02:14:36.533Z,19.55
2022-11-01T02:16:27.643Z,19.48
2022-11-01T02:18:01.763Z,19.80
2022-11-01T02:19:57.426Z,19.90
2022-11-01T02:21:55.521Z,19.48
2022-11-01T02:23:40.650Z,19.33
2022-11-01T02:25:20.357Z,19.90
2022-11-01T02:27:11.849Z,21.20
2022-11-01T02:28:45.700Z,20.83
2022-11-01T02:30:16.317Z,20.92
2022-11-01T02:32:04.952Z,19.40
2022-11-01T02:33:30.907Z,19.88
2022-11-01T02:34:57.377Z,21.02
2022-11-01T02:36:25.846Z,19.35
2022-11-01T02:37:53.566Z,19.85
2022-11-01T02:39:20.500Z,18.67
2022-11-01T02:40:47.111Z,20.15
2022-11-01T02:42:14.577Z,18.98
2022-11-01T02:43:44.524Z,22.15
2022-11-01T02:45:10.384Z,20.52
2022-11-01T02:46:54.190Z,21.27
2022-11-01T02:48:21.694Z,21.35
2022-11-01T02:49:46.337Z,21.08
2022-11-01T02:51:08.965Z,19.55
2022-11-01T02:52:33.762Z,22.60
2022-11-01T02:53:57.097Z,21.48
2022-11-01T02:55:29.836Z,21.88
2022-11-01T02:56:53.876Z,22.35
2022-11-01T02:58:21.899Z,21.25
2022-11-01T02:59:45.839Z,20.05
2022-11-01T03:01:15.214Z,22.88
2022-11-01T03:02:41.492Z,22.40
2022-11-01T03:04:06.390Z,20.00
2022-11-01T03:05:34.940Z,23.02
2022-11-01T03:07:00.341Z,22.38
2022-11-01T03:08:25.408Z,22.45
2022-11-01T03:09:47.826Z,22.95
2022-11-01T03:11:13.414Z,22.23
2022-11-01T03:12:40.357Z,21.13
2022-11-01T03:14:10.924Z,22.83
2022-11-01T03:15:39.827Z,21.80
2022-11-01T03:17:07.080Z,21.63
2022-11-01T03:18:33.540Z,22.17
2022-11-01T03:20:04.399Z,20.80
2022-11-01T03:21:28.614Z,21.58
2022-11-01T03:22:55.296Z,23.00
2022-11-01T03:24:23.641Z,21.63
2022-11-01T03:25:50.304Z,22.10
2022-11-01T03:27:17.980Z,21.45
2022-11-01T03:28:43.605Z,22.10
2022-11-01T03:30:09.512Z,20.70
2022-11-01T03:31:34.184Z,21.92
2022-11-01T03:32:58.817Z,23.73
2022-11-01T03:34:22.974Z,20.73
2022-11-01T03:35:50.049Z,22.10
2022-11-01T03:37:14.323Z,22.73
2022-11-01T03:38:40.079Z,21.77
2022-11-01T03:40:04.914Z,22.52
2022-11-01T03:41:27.960Z,22.92
2022-11-01T03:42:52.502Z,22.10
2022-11-01T03:44:15.918Z,23.02
2022-11-01T03:45:41.142Z,21.90
2022-11-01T03:47:03.885Z,23.20
2022-11-01T03:48:27.308Z,22.98
2022-11-01T03:50:05.525Z,22.27
2022-11-01T03:51:30.917Z,21.85
2022-11-01T03:52:54.611Z,21.88
2022-11-01T03:54:17.967Z,25.20
2022-11-01T03:55:40.522Z,23.08
2022-11-01T03:57:04.069Z,24.42
2022-11-01T03:58:41.420Z,23.77
2022-11-01T04:00:05.338Z,24.63
2022-11-01T04:01:28.749Z,22.90
2022-11-01T04:02:51.961Z,23.92
2022-11-01T04:04:15.537Z,23.65
2022-11-01T04:05:39.226Z,24.10
2022-11-01T04:07:03.964Z,23.45
2022-11-01T04:08:27.301Z,23.10
2022-11-01T04:09:50.721Z,22.55
2022-11-01T04:11:14.046Z,22.60
2022-11-01T04:12:38.897Z,23.70
2022-11-01T04:14:16.174Z,22.38
2022-11-01T04:15:56.848Z,23.52
2022-11-01T04:17:37.893Z,22.48
2022-11-01T04:19:18.868Z,21.20
2022-11-01T04:20:42.195Z,22.50
2022-11-01T04:22:06.910Z,22.63
2022-11-01T04:23:29.326Z,21.65
2022-11-01T04:24:52.713Z,21.88
2022-11-01T04:26:16.537Z,22.83
2022-11-01T04:27:39.878Z,23.30
2022-11-01T04:29:03.282Z,22.60
2022-11-01T04:30:26.309Z,21.98
2022-11-01T04:31:49.659Z,24.42
2022-11-01T04:33:12.023Z,23.30
2022-11-01T04:34:44.537Z,23.23
2022-11-01T04:36:08.835Z,23.45
2022-11-01T04:37:32.631Z,23.77
2022-11-01T04:38:57.379Z,22.27
2022-11-01T04:40:20.447Z,21.02
2022-11-01T04:41:43.905Z,22.95
2022-11-01T04:43:06.321Z,22.25
2022-11-01T04:44:29.958Z,20.52
2022-11-01T04:47:50.830Z,21.08
2022-11-01T04:49:14.169Z,23.13
2022-11-01T04:50:37.786Z,22.58
2022-11-01T04:52:01.918Z,22.75
2022-11-01T04:53:25.629Z,23.23
2022-11-01T04:54:48.989Z,24.80
2022-11-01T04:56:14.437Z,22.85
2022-11-01T04:57:39.131Z,21.40
2022-11-01T04:59:02.486Z,20.55
2022-11-01T05:00:26.565Z,23.73
2022-11-01T05:01:49.041Z,22.15
2022-11-01T05:03:13.046Z,22.17
2022-11-01T05:04:35.384Z,21.95
2022-11-01T05:06:00.493Z,21.92
2022-11-01T05:07:22.860Z,22.05
2022-11-01T05:08:47.596Z,21.23
2022-11-01T05:10:10.618Z,23.02
2022-11-01T05:11:33.961Z,22.65
2022-11-01T05:12:57.298Z,22.50
2022-11-01T05:14:19.745Z,23.00
2022-11-01T05:15:53.586Z,21.88
2022-11-01T05:17:26.540Z,22.55
2022-11-01T05:18:50.202Z,22.38
2022-11-01T05:20:12.719Z,21.98
2022-11-01T05:21:36.063Z,22.48
2022-11-01T05:23:01.697Z,23.05
2022-11-01T05:24:26.679Z,22.77
2022-11-01T05:25:50.109Z,19.95
2022-11-01T05:27:12.550Z,21.48
2022-11-01T05:28:35.896Z,23.77
2022-11-01T05:29:59.217Z,22.75
2022-11-01T05:31:22.559Z,23.15
2022-11-01T05:32:44.894Z,20.67
2022-11-01T05:34:08.225Z,17.48
2022-11-01T05:35:32.372Z,21.15
2022-11-01T05:36:54.946Z,22.17
2022-11-01T05:38:18.289Z,22.15
2022-11-01T05:39:42.019Z,23.40
2022-11-01T05:41:05.915Z,18.65
2022-11-01T05:42:28.356Z,20.70
2022-11-01T05:43:51.812Z,19.55
2022-11-01T05:45:14.279Z,18.23
2022-11-01T05:46:37.648Z,23.48
2022-11-01T05:48:03.935Z,20.65
2022-11-01T05:49:27.548Z,19.23
2022-11-01T05:50:50.871Z,18.17
2022-11-01T05:52:14.277Z,15.70
2022-11-01T05:53:37.718Z,21.65
2022-11-01T05:55:02.427Z,21.83
2022-11-01T05:56:24.793Z,21.77
2022-11-01T05:59:16.613Z,23.25
2022-11-01T06:00:38.968Z,21.48
2022-11-01T06:02:02.494Z,22.52
2022-11-01T06:03:25.969Z,21.50
2022-11-01T06:04:49.764Z,20.92
2022-11-01T06:06:13.230Z,20.48
2022-11-01T06:07:37.459Z,22.73
2022-11-01T06:09:00.152Z,23.15
2022-11-01T06:10:24.992Z,21.90
2022-11-01T06:11:47.344Z,22.90
2022-11-01T06:13:10.967Z,21.17
2022-11-01T06:16:00.190Z,21.60
2022-11-01T06:17:23.516Z,23.92
2022-11-01T06:18:45.879Z,22.35
2022-11-01T06:20:10.025Z,20.08
2022-11-01T06:21:33.393Z,21.95
2022-11-01T06:22:55.770Z,17.67
2022-11-01T06:24:19.140Z,21.35
2022-11-01T06:25:43.846Z,24.35
2022-11-01T06:27:11.534Z,21.17
2022-11-01T06:28:36.513Z,21.63
2022-11-01T06:29:59.862Z,19.55
2022-11-01T06:31:24.120Z,23.15
2022-11-01T06:32:47.679Z,19.00
2022-11-01T06:34:11.004Z,21.38
2022-11-01T06:35:33.749Z,22.15
2022-11-01T06:36:57.117Z,22.60
2022-11-01T06:38:19.484Z,22.98
2022-11-01T06:39:42.856Z,22.42
2022-11-01T06:41:07.635Z,20.70
2022-11-01T06:42:30.991Z,21.63
2022-11-01T06:43:54.388Z,23.65
2022-11-01T06:45:18.164Z,23.05
2022-11-01T06:46:41.657Z,21.90
2022-11-01T06:48:04.642Z,21.50
2022-11-01T06:49:29.794Z,22.20
2022-11-01T06:50:53.817Z,22.85
2022-11-01T06:52:16.198Z,20.42
2022-11-01T06:53:39.522Z,19.20
2022-11-01T06:55:01.848Z,22.23
2022-11-01T06:56:26.583Z,22.38
2022-11-01T06:57:55.715Z,21.08
2022-11-01T06:59:19.067Z,20.23
2022-11-01T07:00:42.531Z,18.45
2022-11-01T07:02:08.855Z,19.75
2022-11-01T07:03:34.551Z,21.38
2022-11-01T07:04:56.901Z,20.30
2022-11-01T07:06:20.538Z,20.35
2022-11-01T07:07:43.882Z,21.02
2022-11-01T07:09:07.311Z,22.40
2022-11-01T07:10:30.958Z,20.08
2022-11-01T07:11:55.715Z,20.25
2022-11-01T07:13:19.094Z,19.35
2022-11-01T07:14:42.482Z,19.17
2022-11-01T07:16:06.594Z,20.33
2022-11-01T07:17:29.987Z,17.75
2022-11-01T07:18:53.317Z,20.40
2022-11-01T07:20:15.729Z,18.45
2022-11-01T07:21:39.320Z,19.17
2022-11-01T07:23:03.412Z,20.08
2022-11-01T07:24:27.031Z,19.90
2022-11-01T07:25:53.563Z,19.67
2022-11-01T07:27:20.510Z,19.77
2022-11-01T07:28:44.295Z,19.02
2022-11-01T07:30:08.033Z,19.13
2022-11-01T07:31:33.204Z,19.75
2022-11-01T07:32:56.168Z,19.23
2022-11-01T07:34:19.591Z,19.00
2022-11-01T07:35:41.945Z,19.08
2022-11-01T07:37:05.462Z,19.20
2022-11-01T07:38:28.829Z,19.27
2022-11-01T07:39:51.190Z,19.88
2022-11-01T07:41:14.513Z,18.65
2022-11-01T07:42:43.394Z,19.50
2022-11-01T07:44:06.955Z,20.30
2022-11-01T07:45:31.200Z,20.05
2022-11-01T07:46:54.539Z,19.77
2022-11-01T07:48:19.079Z,18.70
2022-11-01T07:49:42.401Z,18.08
2022-11-01T07:51:06.308Z,17.40
2022-11-01T07:52:29.686Z,18.23
2022-11-01T07:53:53.044Z,18.20
2022-11-01T07:55:16.500Z,16.88
2022-11-01T07:56:39.851Z,17.17
2022-11-01T07:58:05.438Z,17.13
2022-11-01T07:59:29.102Z,16.20
2022-11-01T08:00:51.520Z,18.20
2022-11-01T08:02:14.961Z,16.80
2022-11-01T08:03:38.525Z,17.20
2022-11-01T08:05:01.853Z,16.77
2022-11-01T08:06:25.219Z,16.70
2022-11-01T08:07:48.607Z,16.80
2022-11-01T08:09:11.936Z,15.85
2022-11-01T08:10:36.138Z,15.80
2022-11-01T08:11:59.762Z,16.67
2022-11-01T08:13:25.515Z,15.38
2022-11-01T08:14:48.837Z,13.68
2022-11-01T08:16:13.424Z,15.63
2022-11-01T08:17:35.948Z,15.38
2022-11-01T08:18:59.290Z,14.77
2022-11-01T08:20:22.629Z,14.95
2022-11-01T08:21:46.000Z,14.75
2022-11-01T08:23:08.682Z,13.88
2022-11-01T08:24:32.414Z,14.05
2022-11-01T08:25:55.776Z,12.52
2022-11-01T08:27:19.144Z,14.13
2022-11-01T08:28:43.848Z,14.20
2022-11-01T08:30:08.443Z,13.85
2022-11-01T08:31:31.816Z,13.95
2022-11-01T08:32:59.858Z,12.55
2022-11-01T08:34:23.390Z,12.13
2022-11-01T08:35:50.494Z,12.38
2022-11-01T08:37:14.255Z,11.65
2022-11-01T08:38:37.823Z,12.70
2022-11-01T08:40:01.188Z,12.52
2022-11-01T08:41:24.540Z,13.05
2022-11-01T08:42:47.903Z,12.52
2022-11-01T08:44:12.762Z,11.02
2022-11-01T08:45:36.177Z,11.68
2022-11-01T08:47:00.753Z,10.80
2022-11-01T08:48:24.096Z,11.13
2022-11-01T08:49:47.401Z,11.55
2022-11-01T08:51:10.780Z,11.90
2022-11-01T08:52:34.288Z,14.00
2022-11-01T08:53:57.947Z,12.07
2022-11-01T08:55:21.698Z,13.50
2022-11-01T08:56:45.159Z,12.13
2022-11-01T08:58:09.492Z,10.82
2022-11-01T08:59:34.189Z,10.80
2022-11-01T09:00:57.579Z,11.05
2022-11-01T09:02:21.068Z,10.60
2022-11-01T09:03:44.780Z,11.57
2022-11-01T09:05:09.538Z,11.77
2022-11-01T09:06:36.186Z,12.20
2022-11-01T09:08:01.088Z,11.93
2022-11-01T09:09:25.140Z,11.45
2022-11-01T09:10:48.493Z,11.25
2022-11-01T09:12:14.654Z,11.32
2022-11-01T09:13:38.283Z,13.73
2022-11-01T09:15:03.025Z,11.40
2022-11-01T09:16:26.519Z,10.63
2022-11-01T09:17:49.854Z,9.95
2022-11-01T09:19:13.206Z,10.25
2022-11-01T09:20:36.631Z,10.18
2022-11-01T09:21:59.989Z,10.32
2022-11-01T09:23:23.401Z,10.75
2022-11-01T09:24:46.730Z,9.50
2022-11-01T09:26:11.659Z,10.60
2022-11-01T09:27:35.129Z,9.20
2022-11-01T09:28:59.977Z,9.32
2022-11-01T09:30:24.663Z,9.60
2022-11-01T09:31:51.284Z,8.93
2022-11-01T09:33:14.620Z,10.45
2022-11-01T09:34:37.984Z,10.65
2022-11-01T09:36:02.327Z,10.05
2022-11-01T09:37:25.878Z,10.85
2022-11-01T09:38:49.218Z,9.73
2022-11-01T09:40:14.563Z,9.00
2022-11-01T09:41:42.683Z,9.90
2022-11-01T09:43:08.959Z,9.65
2022-11-01T09:44:35.041Z,9.10
2022-11-01T09:46:00.365Z,11.18
2022-11-01T09:47:26.651Z,15.32
2022-11-01T09:48:50.180Z,13.10
2022-11-01T09:50:18.471Z,13.73
2022-11-01T09:51:41.950Z,8.77
2022-11-01T09:53:09.958Z,9.27
2022-11-01T09:54:34.981Z,10.63
2022-11-01T09:56:04.177Z,9.93
2022-11-01T09:57:34.124Z,10.32
2022-11-01T09:59:03.154Z,9.48
2022-11-01T10:00:26.525Z,9.68
2022-11-01T10:01:57.361Z,8.70
2022-11-01T10:03:35.130Z,9.32
2022-11-01T10:05:16.069Z,8.95
2022-11-01T10:06:45.081Z,8.93
2022-11-01T10:08:13.684Z,9.00
2022-11-01T10:09:44.749Z,9.38
2022-11-01T10:11:26.450Z,9.85
2022-11-01T10:12:59.281Z,9.10
2022-11-01T10:14:36.839Z,9.07
2022-11-01T10:16:05.823Z,8.32
2022-11-01T10:17:50.905Z,9.50
2022-11-01T10:19:17.312Z,9.18
2022-11-01T10:20:41.959Z,9.07
2022-11-01T10:22:08.823Z,8.63
2022-11-01T10:23:41.019Z,8.65
2022-11-01T10:25:07.347Z,7.90
2022-11-01T10:26:31.802Z,8.30
2022-11-01T10:28:00.988Z,8.15
2022-11-01T10:29:31.829Z,7.72
2022-11-01T10:30:57.674Z,8.05
2022-11-01T10:32:29.102Z,8.30
2022-11-01T10:33:58.308Z,8.48
2022-11-01T10:35:25.361Z,7.57
2022-11-01T10:36:49.598Z,8.55
2022-11-01T10:38:35.133Z,8.55
2022-11-01T10:40:09.110Z,8.25
2022-11-01T10:41:39.030Z,8.93
2022-11-01T10:43:02.668Z,7.85
2022-11-01T10:44:29.009Z,7.88
2022-11-01T10:45:56.381Z,8.00
2022-11-01T10:47:20.591Z,8.18
2022-11-01T10:48:46.594Z,8.50
2022-11-01T10:50:18.812Z,7.60
2022-11-01T10:51:43.179Z,7.82
2022-11-01T10:53:11.130Z,8.77
2022-11-01T10:54:38.615Z,8.48
2022-11-01T10:56:08.980Z,7.47
2022-11-01T10:57:35.880Z,8.90
2022-11-01T10:59:02.847Z,7.18
2022-11-01T11:00:26.250Z,8.18
2022-11-01T11:01:51.370Z,7.50
2022-11-01T11:03:19.486Z,7.30
2022-11-01T11:04:42.918Z,7.32
2022-11-01T11:06:11.812Z,7.40
2022-11-01T11:07:35.318Z,7.05
2022-11-01T11:08:59.357Z,7.30
2022-11-01T11:10:26.566Z,5.95
2022-11-01T11:11:50.843Z,6.10
2022-11-01T11:13:16.398Z,6.03
2022-11-01T11:14:39.626Z,6.50
2022-11-01T11:16:05.527Z,6.38
2022-11-01T11:17:32.784Z,5.65
2022-11-01T11:19:04.432Z,7.25
2022-11-01T11:20:30.337Z,6.00
2022-11-01T11:21:55.740Z,6.50
2022-11-01T11:23:21.343Z,6.00
2022-11-01T11:24:45.883Z,5.75
2022-11-01T11:26:11.692Z,5.78
2022-11-01T11:27:35.069Z,5.20
2022-11-01T11:28:58.889Z,4.90
2022-11-01T11:30:29.981Z,5.30
2022-11-01T11:31:57.062Z,5.15
2022-11-01T11:33:20.953Z,4.70
2022-11-01T11:34:44.703Z,6.05
2022-11-01T11:36:08.962Z,4.97
2022-11-01T11:37:34.678Z,5.50
2022-11-01T11:38:57.168Z,5.55
2022-11-01T11:40:23.041Z,4.80
2022-11-01T11:41:47.124Z,5.75
2022-11-01T11:43:22.743Z,6.00
2022-11-01T11:44:50.634Z,4.57
2022-11-01T11:46:21.556Z,4.95
2022-11-01T11:47:46.881Z,5.55
2022-11-01T11:49:27.595Z,4.70
2022-11-01T11:51:01.982Z,5.10
2022-11-01T11:52:28.855Z,5.10
2022-11-01T11:54:18.886Z,4.70
2022-11-01T11:55:44.252Z,4.88
2022-11-01T11:57:12.086Z,4.68
2022-11-01T11:58:38.560Z,4.38
2022-11-01T12:00:05.829Z,5.22
2022-11-01T12:01:31.391Z,5.05
2022-11-01T12:02:54.830Z,4.35
2022-11-01T12:04:19.071Z,5.72
2022-11-01T12:05:53.752Z,5.05
2022-11-01T12:07:26.247Z,4.43
2022-11-01T12:08:50.968Z,4.57
2022-11-01T12:10:31.467Z,4.65
2022-11-01T12:11:54.818Z,4.85
2022-11-01T12:13:27.338Z,4.80
2022-11-01T12:14:50.834Z,5.22
2022-11-01T12:16:21.165Z,5.65
2022-11-01T12:17:46.851Z,5.25
2022-11-01T12:19:24.723Z,5.15
2022-11-01T12:20:51.433Z,4.40
2022-11-01T12:22:14.866Z,5.15
2022-11-01T12:23:40.066Z,5.80
2022-11-01T12:25:06.392Z,6.47
2022-11-01T12:26:34.976Z,5.15
2022-11-01T12:28:01.787Z,6.18
2022-11-01T12:29:30.095Z,5.45
2022-11-01T12:30:56.652Z,4.88
2022-11-01T12:32:25.920Z,5.20
2022-11-01T12:33:52.221Z,4.90
2022-11-01T12:35:26.548Z,5.85
2022-11-01T12:36:53.591Z,6.10
2022-11-01T12:38:33.883Z,5.22
2022-11-01T12:40:02.258Z,4.80
2022-11-01T12:41:31.844Z,6.60
2022-11-01T12:43:01.166Z,5.00
2022-11-01T12:44:33.287Z,4.18
2022-11-01T12:45:58.824Z,5.65
2022-11-01T12:47:25.954Z,6.53
2022-11-01T12:48:52.199Z,5.03
2022-11-01T12:50:20.323Z,5.43
2022-11-01T12:51:47.048Z,5.75
2022-11-01T12:53:14.077Z,5.88
2022-11-01T12:54:40.158Z,4.65
2022-11-01T12:56:03.609Z,6.60
2022-11-01T12:57:28.688Z,4.88
2022-11-01T12:58:53.854Z,5.55
2022-11-01T13:00:20.164Z,5.18
2022-11-01T13:01:52.208Z,6.75
2022-11-01T13:03:25.027Z,5.63
2022-11-01T13:04:54.115Z,5.05
2022-11-01T13:06:35.137Z,4.90
2022-11-01T13:08:04.912Z,4.60
2022-11-01T13:09:36.446Z,4.53
2022-11-01T13:11:05.221Z,5.00
2022-11-01T13:12:36.880Z,5.53
2022-11-01T13:14:07.929Z,4.53
2022-11-01T13:15:35.286Z,4.78
2022-11-01T13:17:04.785Z,4.55
2022-11-01T13:18:37.849Z,4.85
2022-11-01T13:20:06.538Z,4.32
2022-11-01T13:21:36.236Z,4.50
2022-11-01T13:23:07.538Z,4.25
2022-11-01T13:24:35.946Z,4.93
2022-11-01T13:26:04.815Z,4.10
2022-11-01T13:27:32.859Z,4.43
2022-11-01T13:29:07.765Z,4.60
2022-11-01T13:30:32.217Z,4.32
2022-11-01T13:32:02.088Z,4.70
2022-11-01T13:33:31.651Z,4.70
2022-11-01T13:35:32.815Z,4.30
2022-11-01T13:37:02.494Z,4.50
2022-11-01T13:38:33.361Z,4.93
2022-11-01T13:40:07.692Z,4.35
2022-11-01T13:41:35.333Z,4.15
2022-11-01T13:43:05.160Z,5.00
2022-11-01T13:44:32.381Z,4.82
2022-11-01T13:46:26.455Z,4.18
2022-11-01T13:47:53.416Z,4.85
2022-11-01T13:49:48.260Z,5.80
2022-11-01T13:51:28.847Z,5.07
2022-11-01T13:52:56.670Z,4.57
2022-11-01T13:54:23.336Z,3.95
2022-11-01T13:55:50.249Z,4.47
2022-11-01T13:57:16.072Z,4.53
2022-11-01T13:58:40.934Z,4.22
2022-11-01T14:00:09.119Z,4.53
2022-11-01T14:01:36.381Z,4.97
2022-11-01T14:03:01.118Z,4.72
2022-11-01T14:04:55.838Z,4.65
2022-11-01T14:06:31.337Z,5.63
2022-11-01T14:08:15.576Z,4.47
2022-11-01T14:09:48.237Z,5.15
2022-11-01T14:11:13.787Z,5.25
2022-11-01T14:12:43.293Z,4.50
2022-11-01T14:14:43.842Z,4.90
2022-11-01T14:16:29.581Z,5.05
2022-11-01T14:18:14.590Z,4.45
2022-11-01T14:19:38.176Z,4.93
2022-11-01T14:21:28.577Z,4.90
2022-11-01T14:22:50.941Z,4.22
2022-11-01T14:24:23.552Z,4.63
2022-11-01T14:25:47.232Z,5.95
2022-11-01T14:27:24.288Z,4.20
2022-11-01T14:28:47.329Z,4.97
2022-11-01T14:30:16.172Z,5.70
2022-11-01T14:31:40.561Z,4.32
2022-11-01T14:33:05.204Z,4.65
2022-11-01T14:34:32.749Z,4.30
2022-11-01T14:35:57.816Z,4.95
2022-11-01T14:37:23.811Z,5.07
2022-11-01T14:38:50.124Z,4.90
2022-11-01T14:40:31.492Z,4.43
2022-11-01T14:41:56.420Z,4.90
2022-11-01T14:43:23.406Z,4.43
2022-11-01T14:44:50.522Z,5.85
2022-11-01T14:46:17.255Z,6.22
2022-11-01T14:47:43.241Z,4.68
2022-11-01T14:49:17.446Z,4.15
2022-11-01T14:50:46.738Z,4.65
2022-11-01T14:52:12.699Z,5.93
2022-11-01T14:53:37.567Z,5.13
2022-11-01T14:55:07.246Z,5.97
2022-11-01T14:56:38.435Z,6.40
2022-11-01T14:58:22.209Z,4.38
2022-11-01T14:59:45.546Z,5.28
2022-11-01T15:01:13.172Z,5.45
2022-11-01T15:02:36.875Z,4.43
2022-11-01T15:04:02.308Z,6.35
2022-11-01T15:05:26.036Z,4.25
2022-11-01T15:06:50.208Z,5.05
2022-11-01T15:08:31.574Z,7.18
2022-11-01T15:09:59.247Z,4.93
2022-11-01T15:11:22.615Z,6.20
2022-11-01T15:12:47.767Z,5.50
2022-11-01T15:14:11.496Z,5.13
2022-11-01T15:15:37.877Z,5.18
2022-11-01T15:17:01.391Z,5.22
2022-11-01T15:18:24.827Z,4.75
2022-11-01T15:19:52.250Z,5.05
2022-11-01T15:21:22.047Z,5.15
2022-11-01T15:22:48.767Z,5.38
2022-11-01T15:24:20.480Z,4.57
2022-11-01T15:25:45.648Z,4.45
2022-11-01T15:27:12.885Z,5.50
2022-11-01T15:28:40.383Z,4.88
2022-11-01T15:30:04.773Z,4.32
2022-11-01T15:31:28.433Z,6.28
2022-11-01T15:33:10.274Z,5.07
2022-11-01T15:34:36.384Z,5.93
2022-11-01T15:36:03.883Z,5.97
2022-11-01T15:37:30.588Z,5.70
2022-11-01T15:38:55.793Z,5.10
2022-11-01T15:40:27.713Z,5.75
2022-11-01T15:41:52.088Z,5.38
2022-11-01T15:43:19.726Z,5.32
2022-11-01T15:44:46.111Z,6.43
2022-11-01T15:46:19.551Z,6.55
2022-11-01T15:47:45.369Z,4.57
2022-11-01T15:49:10.876Z,5.97
2022-11-01T15:50:36.584Z,5.53
2022-11-01T15:52:04.246Z,5.93
2022-11-01T15:53:29.521Z,6.82
2022-11-01T15:54:56.315Z,5.60
2022-11-01T15:56:25.233Z,5.25
2022-11-01T15:57:52.329Z,4.82
2022-11-01T15:59:24.366Z,5.43
2022-11-01T16:00:50.030Z,5.45
2022-11-01T16:02:18.044Z,4.90
2022-11-01T16:03:44.800Z,6.45
2022-11-01T16:05:09.247Z,5.20
2022-11-01T16:06:37.147Z,5.97
2022-11-01T16:08:02.056Z,5.05
2022-11-01T16:09:33.421Z,5.90
2022-11-01T16:10:57.015Z,5.10
2022-11-01T16:12:22.679Z,6.70
2022-11-01T16:13:50.660Z,5.88
2022-11-01T16:15:22.137Z,5.55
2022-11-01T16:16:59.065Z,5.65
2022-11-01T16:18:25.521Z,6.97
2022-11-01T16:19:50.884Z,5.47
2022-11-01T16:21:27.774Z,5.40
2022-11-01T16:22:51.774Z,6.00
2022-11-01T16:24:21.468Z,6.00
2022-11-01T16:25:44.810Z,5.75
2022-11-01T16:27:12.064Z,6.85
2022-11-01T16:28:40.844Z,8.63
2022-11-01T16:30:08.480Z,6.43
2022-11-01T16:31:33.407Z,6.20
2022-11-01T16:32:55.758Z,7.32
2022-11-01T16:34:24.926Z,6.20
2022-11-01T16:35:49.488Z,14.20
2022-11-01T16:37:22.600Z,7.30
2022-11-01T16:38:46.812Z,10.43
2022-11-01T16:40:29.969Z,6.57
2022-11-01T16:41:53.353Z,7.22
2022-11-01T16:43:16.734Z,6.07
2022-11-01T16:44:41.178Z,6.20
2022-11-01T16:46:05.888Z,5.93
2022-11-01T16:47:29.248Z,5.75
2022-11-01T16:48:54.032Z,7.47
2022-11-01T16:50:19.354Z,5.85
2022-11-01T16:51:42.913Z,5.85
2022-11-01T16:53:10.104Z,7.93
2022-11-01T16:54:33.509Z,9.00
2022-11-01T16:56:23.163Z,6.40
2022-11-01T16:57:48.149Z,5.35
2022-11-01T16:59:22.110Z,6.45
2022-11-01T17:00:52.347Z,6.18
2022-11-01T17:02:17.871Z,5.95
2022-11-01T17:03:42.045Z,9.20
2022-11-01T17:05:16.635Z,7.55
2022-11-01T17:06:39.985Z,7.05
2022-11-01T17:08:03.861Z,7.07
2022-11-01T17:09:30.668Z,7.72
2022-11-01T17:10:54.019Z,7.43
2022-11-01T17:12:18.708Z,6.95
2022-11-01T17:13:42.559Z,6.45
2022-11-01T17:15:09.464Z,6.47
2022-11-01T17:16:32.925Z,5.70
2022-11-01T17:17:56.373Z,6.32
2022-11-01T17:19:23.123Z,5.38
2022-11-01T17:20:48.806Z,6.60
2022-11-01T17:22:16.111Z,6.75
2022-11-01T17:23:39.510Z,6.45
2022-11-01T17:25:03.390Z,8.35
2022-11-01T17:26:26.833Z,6.43
2022-11-01T17:27:52.618Z,6.15
2022-11-01T17:29:16.104Z,6.10
2022-11-01T17:30:39.508Z,7.30
2022-11-01T17:32:04.139Z,6.28
2022-11-01T17:33:26.533Z,5.90
2022-11-01T17:34:49.866Z,6.10
2022-11-01T17:36:15.094Z,6.00
2022-11-01T17:37:38.563Z,6.95
2022-11-01T17:39:01.901Z,11.45
2022-11-01T17:40:26.418Z,9.05
2022-11-01T17:41:49.764Z,6.72
2022-11-01T17:43:18.821Z,6.00
2022-11-01T17:44:42.265Z,9.05
2022-11-01T17:46:12.072Z,8.48
2022-11-01T17:47:35.420Z,6.47
2022-11-01T17:48:58.884Z,7.03
2022-11-01T17:50:22.722Z,9.07
2022-11-01T17:51:48.423Z,6.70
2022-11-01T17:53:17.175Z,7.30
2022-11-01T17:54:40.882Z,12.20
2022-11-01T17:56:04.395Z,12.43
2022-11-01T17:57:27.727Z,8.13
2022-11-01T17:58:53.776Z,15.82
2022-11-01T18:00:18.220Z,15.48
2022-11-01T18:01:42.788Z,15.25
2022-11-01T18:03:06.380Z,10.75
2022-11-01T18:04:35.510Z,10.40
2022-11-01T18:06:00.851Z,10.50
2022-11-01T18:07:24.216Z,7.78
2022-11-01T18:08:49.757Z,8.55
2022-11-01T18:10:18.635Z,7.75
2022-11-01T18:11:45.969Z,14.88
2022-11-01T18:13:21.295Z,10.10
2022-11-01T18:14:55.210Z,19.75
2022-11-01T18:16:26.086Z,10.00
2022-11-01T18:17:56.720Z,10.05
2022-11-01T18:19:45.007Z,13.60
2022-11-01T18:21:12.498Z,11.65
2022-11-01T18:22:42.669Z,11.38
2022-11-01T18:24:14.328Z,9.65
2022-11-01T18:25:42.627Z,8.13
2022-11-01T18:27:11.084Z,11.88
2022-11-01T18:28:35.265Z,7.95
2022-11-01T18:30:00.065Z,11.68
2022-11-01T18:31:26.549Z,10.77
2022-11-01T18:32:54.794Z,8.90
2022-11-01T18:34:25.801Z,15.50
2022-11-01T18:35:54.679Z,11.30
2022-11-01T18:37:26.801Z,8.98
2022-11-01T18:38:57.028Z,13.80
2022-11-01T18:40:24.607Z,12.55
2022-11-01T18:41:48.274Z,20.27
2022-11-01T18:43:11.618Z,13.07
2022-11-01T18:44:35.190Z,11.90
2022-11-01T18:47:46.793Z,13.30
2022-11-01T18:49:11.963Z,12.85
2022-11-01T18:50:38.433Z,12.90
2022-11-01T18:52:01.841Z,13.05
2022-11-01T18:53:25.581Z,8.13
2022-11-01T18:54:56.082Z,12.73
2022-11-01T18:56:22.732Z,11.82
2022-11-01T18:57:46.095Z,15.23
2022-11-01T18:59:13.465Z,12.07